Pagina principale
METAR-TAF:

METAR-TAF

Aeroporti :

Grenchen, Svizzera

latitudine: 47-10-53N, longitudine: 007-24-59E, altezza: 430 m

Osservazione

Il bollettino è stato emesso 26 minuti fa, alle 15:50 UTC
Vento 5 kt da est/nord-est, variando fra nord/nord-est e est
Temperature 26°C
Umidità 54%
Pressione 1021 hPa
Visibilità 10 km o più
Poco nuvoloso ad un'altezza di 4600 ft
Nubi sparse ad un'altezza di 7000 ft

METAR: LSZG 181550Z AUTO 07005KT 020V090 9999 FEW046 SCT070 26/16 Q1021

Ora: 18:16 (16:16 UTC)

Previsione

Il bollettino è stato emesso 1 ora e 51 minuti fa, alle 14:25 UTC
Previsione valida dal 18 alle 15 UTC al 18 alle 24 UTC
Vento 5 kt da est/sud-est
Visibilità 10 km o più
Nubi sparse ad un'altezza di 4500 ft

TAF: LSZG 181425Z 1815/1824 11005KT 9999 SCT045

Osservazioni e previsioni meteorologiche di più di 4000 aeroporti (messaggi METAR e TAF).

Le stazioni disponibili sono rappresentate dai dischi gialli e rossi sulla carta.

Puntare il mouse per vedere il nome della stazione.

Clicca sopra per visualizzare le osservazioni e previsioni meteorologiche.

Per cambiare la mappa : fare clic sui pulsanti verdi con una croce nera per ingrandire, il pulsante verde con un trattino per diminuire, o sulla freccia verde per le mappe adiacenti.


METAR-TAF: